EZY123 LRSB-LRSB
Flight info
| Callsign | EZY123 |
|---|---|
| Flight time | 0h 11m |
| Altitude | 8000 |
| Route | SIB DCT 80DME DCT SIB |
| Aircraft | A21N/M-SDE2E3FGHIRWXY/LB1 |
Departure
| Time | 2026-05-04 12:04 |
|---|---|
| Airport | Sibiu International Airport (LRSB) |
Arrival
| Time | 2026-05-04 12:15 |
|---|---|
| Airport | Sibiu International Airport (LRSB) |
| Time | Latitude | Longitude | Altitude | Speed | Heading |
|---|---|---|---|---|---|
| 2026-05-04 11:46 | 45.78859 | 24.09357 | 1452 ft | 0 kts | 50° |
| 2026-05-04 11:59 | 45.78859 | 24.09360 | 1452 ft | 0 kts | 75° |
| 2026-05-04 11:59 | 45.78856 | 24.09387 | 1452 ft | 4 kts | 103° |
| 2026-05-04 12:00 | 45.78841 | 24.09452 | 1451 ft | 9 kts | 115° |
| 2026-05-04 12:00 | 45.78811 | 24.09554 | 1449 ft | 12 kts | 107° |
| 2026-05-04 12:00 | 45.78801 | 24.09696 | 1446 ft | 16 kts | 93° |
| 2026-05-04 12:00 | 45.78751 | 24.09807 | 1444 ft | 15 kts | 180° |
| 2026-05-04 12:01 | 45.78640 | 24.09799 | 1444 ft | 16 kts | 182° |
| 2026-05-04 12:01 | 45.78564 | 24.09892 | 1441 ft | 17 kts | 94° |
| 2026-05-04 12:02 | 45.78561 | 24.10169 | 1435 ft | 0 kts | 272° |
| 2026-05-04 12:03 | 45.78562 | 24.10150 | 1435 ft | 8 kts | 272° |
| 2026-05-04 12:03 | 45.78572 | 24.09683 | 1446 ft | 86 kts | 270° |
| 2026-05-04 12:03 | 45.78590 | 24.08470 | 1468 ft | 152 kts | 272° |
| 2026-05-04 12:04 | 45.78607 | 24.06849 | 1891 ft | 170 kts | 274° |
| 2026-05-04 12:04 | 45.78643 | 24.05181 | 2680 ft | 169 kts | 273° |
| 2026-05-04 12:04 | 45.78651 | 24.03533 | 3334 ft | 169 kts | 273° |
| 2026-05-04 12:04 | 45.78667 | 24.01793 | 3686 ft | 188 kts | 273° |
| 2026-05-04 12:05 | 45.78694 | 23.99710 | 3719 ft | 229 kts | 273° |
| 2026-05-04 12:05 | 45.78740 | 23.97260 | 3801 ft | 260 kts | 274° |
| 2026-05-04 12:05 | 45.78766 | 23.94623 | 3829 ft | 266 kts | 269° |
| 2026-05-04 12:05 | 45.78659 | 23.91996 | 3744 ft | 267 kts | 268° |
| 2026-05-04 12:06 | 45.78258 | 23.89393 | 3919 ft | 270 kts | 242° |
| 2026-05-04 12:06 | 45.76961 | 23.87472 | 4099 ft | 276 kts | 208° |
| 2026-05-04 12:06 | 45.76196 | 23.87021 | 4025 ft | 275 kts | 193° |
| 2026-05-04 12:06 | 45.74294 | 23.87045 | 4108 ft | 275 kts | 165° |
| 2026-05-04 12:07 | 45.72554 | 23.88138 | 4138 ft | 273 kts | 148° |
| 2026-05-04 12:07 | 45.70960 | 23.89558 | 4443 ft | 274 kts | 144° |
| 2026-05-04 12:07 | 45.69416 | 23.91189 | 4669 ft | 278 kts | 142° |
| 2026-05-04 12:07 | 45.67865 | 23.92778 | 4931 ft | 273 kts | 136° |
| 2026-05-04 12:08 | 45.66802 | 23.94937 | 5718 ft | 272 kts | 105° |
| 2026-05-04 12:08 | 45.66526 | 23.97635 | 5487 ft | 280 kts | 83° |
| 2026-05-04 12:08 | 45.66869 | 24.00355 | 4996 ft | 281 kts | 71° |
| 2026-05-04 12:08 | 45.67661 | 24.02881 | 4436 ft | 284 kts | 59° |
| 2026-05-04 12:09 | 45.68698 | 24.05302 | 3912 ft | 288 kts | 56° |
| 2026-05-04 12:09 | 45.69764 | 24.07671 | 3685 ft | 279 kts | 55° |
| 2026-05-04 12:09 | 45.70829 | 24.09910 | 3583 ft | 265 kts | 54° |
| 2026-05-04 12:09 | 45.71764 | 24.12096 | 3527 ft | 252 kts | 68° |
| 2026-05-04 12:10 | 45.72013 | 24.14475 | 3619 ft | 234 kts | 85° |
| 2026-05-04 12:10 | 45.72015 | 24.16742 | 3612 ft | 219 kts | 88° |
| 2026-05-04 12:10 | 45.71976 | 24.18858 | 3595 ft | 213 kts | 88° |
| 2026-05-04 12:10 | 45.71972 | 24.20926 | 3482 ft | 203 kts | 82° |
| 2026-05-04 12:11 | 45.72439 | 24.22666 | 3706 ft | 185 kts | 45° |
| 2026-05-04 12:11 | 45.73494 | 24.23713 | 3534 ft | 187 kts | 27° |
| 2026-05-04 12:11 | 45.74630 | 24.24563 | 3325 ft | 178 kts | 24° |
| 2026-05-04 12:11 | 45.75732 | 24.25269 | 3220 ft | 171 kts | 21° |
| 2026-05-04 12:12 | 45.76794 | 24.25735 | 3168 ft | 151 kts | 0° |
| 2026-05-04 12:12 | 45.77758 | 24.25287 | 3263 ft | 148 kts | 322° |
| 2026-05-04 12:12 | 45.78310 | 24.24062 | 3218 ft | 152 kts | 288° |
| 2026-05-04 12:12 | 45.78364 | 24.22579 | 2935 ft | 146 kts | 270° |
| 2026-05-04 12:13 | 45.78319 | 24.21137 | 2847 ft | 145 kts | 274° |
| 2026-05-04 12:14 | 45.78538 | 24.11051 | 1556 ft | 144 kts | 275° |
| 2026-05-04 12:15 | 45.78569 | 24.09689 | 1451 ft | 127 kts | 273° |
| 2026-05-04 12:15 | 45.78589 | 24.08619 | 1463 ft | 84 kts | 271° |
| 2026-05-04 12:15 | 45.78596 | 24.08030 | 1485 ft | 36 kts | 271° |
| 2026-05-04 12:15 | 45.78605 | 24.07724 | 1498 ft | 16 kts | 285° |
| 2026-05-04 12:16 | 45.78599 | 24.07707 | 1498 ft | 6 kts | 100° |
| 2026-05-04 12:16 | 45.78600 | 24.07833 | 1494 ft | 21 kts | 90° |
| 2026-05-04 12:16 | 45.78597 | 24.08112 | 1482 ft | 31 kts | 91° |
| 2026-05-04 12:16 | 45.78625 | 24.08392 | 1470 ft | 28 kts | 29° |
| 2026-05-04 12:17 | 45.78692 | 24.08407 | 1470 ft | 0 kts | 2° |